METAR Data
IDs: Format: Raw Decoded Include TAF

Data at: 0832 UTC 03 Aug 2021

SADF 030800Z 00000KT CAVOK 05/04 Q1027